Time;durP1;ratioP1;P1;durP2;ratioP2;P2;SDS_P1;SDS_P2;PMS_P1;PMS_P2;Temp;Humidity;BMP_temperature;BMP_pressure;BME280_temperature;BME280_humidity;BME280_pressure;Samples;Min_cycle;Max_cycle;Signal;HPM_P1;HPM_P2
2022/07/15 00:00:28;;;;;;;3.22;0.95;;;14.50;99.90;;;;;;4966950;28;20034;-42
2022/07/15 00:02:54;;;;;;;3.95;0.80;;;14.50;99.90;;;;;;4968181;28;20042;-42
2022/07/15 00:05:20;;;;;;;3.15;0.80;;;14.50;99.90;;;;;;4967965;28;20062;-44
2022/07/15 00:07:46;;;;;;;3.30;0.80;;;14.50;99.90;;;;;;4968191;28;20073;-41
2022/07/15 00:10:15;;;;;;;4.70;0.90;;;14.40;99.90;;;;;;4970386;28;20354;-42
2022/07/15 00:12:46;;;;;;;2.70;0.70;;;14.40;99.90;;;;;;4970954;28;20082;-41
2022/07/15 00:15:12;;;;;;;2.50;0.60;;;14.40;99.90;;;;;;4970871;28;20163;-41
2022/07/15 00:17:39;;;;;;;2.90;0.60;;;14.40;99.90;;;;;;4971392;28;20045;-43
2022/07/15 00:20:06;;;;;;;4.68;0.82;;;14.40;99.90;;;;;;4972481;28;20050;-42
2022/07/15 00:22:31;;;;;;;4.95;0.77;;;14.40;99.90;;;;;;4968547;28;20031;-43
2022/07/15 00:24:57;;;;;;;3.55;0.80;;;14.50;99.90;;;;;;4970496;28;20086;-42
2022/07/15 00:27:23;;;;;;;4.63;1.55;;;14.50;99.90;;;;;;4970096;28;20587;-43
2022/07/15 00:29:50;;;;;;;2.78;0.50;;;14.50;99.90;;;;;;4971009;28;20038;-42
2022/07/15 00:32:16;;;;;;;4.50;0.65;;;14.60;99.90;;;;;;4969333;28;20051;-43
2022/07/15 00:34:42;;;;;;;4.35;0.90;;;14.60;99.90;;;;;;4969613;28;20046;-43
2022/07/15 00:37:07;;;;;;;1.55;0.50;;;14.70;99.90;;;;;;4970923;28;20412;-41
2022/07/15 00:39:34;;;;;;;4.20;0.75;;;14.70;99.90;;;;;;4970909;28;20039;-43
2022/07/15 00:42:00;;;;;;;2.25;0.57;;;14.80;99.90;;;;;;4971536;28;20175;-43
2022/07/15 00:44:25;;;;;;;3.75;0.80;;;14.80;99.90;;;;;;4969524;28;20416;-41
2022/07/15 00:46:53;;;;;;;4.53;0.75;;;14.80;99.90;;;;;;4971025;28;20129;-41
2022/07/15 00:49:19;;;;;;;3.58;0.80;;;14.90;99.90;;;;;;4969151;28;20043;-42
2022/07/15 00:51:48;;;;;;;5.75;0.75;;;14.90;99.90;;;;;;4968432;28;20145;-42
2022/07/15 00:54:15;;;;;;;5.18;1.05;;;14.90;99.90;;;;;;4969407;28;20077;-46
2022/07/15 00:56:52;;;;;;;2.90;0.80;;;15.00;99.90;;;;;;4969889;28;20055;-43
2022/07/15 00:59:21;;;;;;;6.15;0.73;;;15.00;99.90;;;;;;4970774;28;20121;-43
2022/07/15 01:01:47;;;;;;;3.83;0.75;;;15.00;99.90;;;;;;4969718;28;20392;-42
2022/07/15 01:04:14;;;;;;;5.50;0.80;;;15.00;99.90;;;;;;4969709;28;20038;-44
2022/07/15 01:06:40;;;;;;;4.65;0.93;;;15.00;99.90;;;;;;4971187;28;20050;-44
2022/07/15 01:09:06;;;;;;;6.38;0.90;;;15.00;99.90;;;;;;4968029;28;20127;-44
2022/07/15 01:11:32;;;;;;;4.45;0.63;;;14.90;99.90;;;;;;4970904;28;20038;-45
2022/07/15 01:13:59;;;;;;;5.38;0.90;;;14.90;99.90;;;;;;4969390;28;20065;-45
2022/07/15 01:16:25;;;;;;;3.47;0.80;;;15.00;99.90;;;;;;4968317;28;20054;-46
2022/07/15 01:18:51;;;;;;;3.75;0.90;;;15.00;99.90;;;;;;4969652;28;20046;-45
2022/07/15 01:21:17;;;;;;;4.15;0.80;;;15.00;99.90;;;;;;4968506;28;20041;-42
2022/07/15 01:23:42;;;;;;;4.68;0.70;;;15.00;99.90;;;;;;4966916;28;20416;-45
2022/07/15 01:26:10;;;;;;;7.22;0.90;;;15.00;99.90;;;;;;4966319;28;20122;-45
2022/07/15 01:28:36;;;;;;;7.07;1.17;;;15.00;99.90;;;;;;4969581;28;20042;-41
2022/07/15 01:31:02;;;;;;;5.45;1.02;;;15.10;99.90;;;;;;4964092;28;20038;-42
2022/07/15 01:33:29;;;;;;;2.80;0.90;;;15.10;99.90;;;;;;4969565;28;20086;-43
2022/07/15 01:35:55;;;;;;;2.40;0.60;;;15.10;99.90;;;;;;4966046;28;20047;-47
2022/07/15 01:38:21;;;;;;;4.97;0.90;;;15.10;99.90;;;;;;4965448;28;20043;-44
2022/07/15 01:40:47;;;;;;;5.18;0.60;;;15.10;99.90;;;;;;4968662;28;20047;-44
2022/07/15 01:43:12;;;;;;;3.70;0.80;;;15.10;99.90;;;;;;4966179;28;20053;-44
2022/07/15 01:45:43;;;;;;;5.38;0.60;;;15.10;99.90;;;;;;4962581;28;20054;-43
2022/07/15 01:49:21;;;;;;;5.93;1.00;;;15.10;99.90;;;;;;4966774;28;20042;-44
2022/07/15 01:50:57;;;;;;;5.07;0.60;;;15.00;99.90;;;;;;4966863;28;20576;-43
2022/07/15 01:53:23;;;;;;;4.43;0.90;;;15.00;99.90;;;;;;4968068;28;20489;-46
2022/07/15 01:55:49;;;;;;;3.30;0.73;;;15.00;99.90;;;;;;4967713;28;20097;-43
2022/07/15 01:58:15;;;;;;;4.15;0.88;;;15.00;99.90;;;;;;4968640;28;20034;-42
2022/07/15 02:00:41;;;;;;;3.38;0.82;;;15.00;99.90;;;;;;4982800;28;20500;-42
2022/07/15 02:03:07;;;;;;;7.80;1.00;;;15.00;99.90;;;;;;4966308;28;20188;-42
2022/07/15 02:05:34;;;;;;;4.50;0.70;;;15.00;99.90;;;;;;4965829;28;20070;-44
2022/07/15 02:08:00;;;;;;;4.35;0.73;;;14.90;99.90;;;;;;4966054;28;20134;-43
2022/07/15 02:10:25;;;;;;;3.00;0.85;;;14.90;99.90;;;;;;4966949;28;20137;-42
2022/07/15 02:12:51;;;;;;;4.70;0.70;;;14.90;99.90;;;;;;4966364;28;20077;-42
2022/07/15 02:15:17;;;;;;;4.35;0.90;;;14.90;99.90;;;;;;4966613;28;20480;-42
2022/07/15 02:17:43;;;;;;;5.45;0.70;;;14.90;99.90;;;;;;4968363;28;20038;-43
2022/07/15 02:20:09;;;;;;;4.72;1.02;;;14.90;99.90;;;;;;4965279;28;20030;-43
2022/07/15 02:22:37;;;;;;;2.88;0.80;;;14.90;99.90;;;;;;4968364;28;20042;-43
2022/07/15 02:25:03;;;;;;;4.25;1.30;;;14.90;99.90;;;;;;4962947;28;20047;-42
2022/07/15 02:27:29;;;;;;;4.95;0.70;;;14.80;99.90;;;;;;4966794;28;20193;-43
2022/07/15 02:29:56;;;;;;;2.78;0.65;;;14.80;99.90;;;;;;4966197;28;20464;-43
2022/07/15 02:32:21;;;;;;;4.03;0.90;;;14.80;99.90;;;;;;4966960;28;20579;-42
2022/07/15 02:34:47;;;;;;;5.93;1.13;;;14.80;99.90;;;;;;4967345;28;20165;-45
2022/07/15 02:37:13;;;;;;;3.33;0.85;;;14.70;99.90;;;;;;4965884;28;20397;-43
2022/07/15 02:39:38;;;;;;;5.38;0.80;;;14.70;99.90;;;;;;4965665;28;20042;-45
2022/07/15 02:42:05;;;;;;;4.97;1.10;;;14.70;99.90;;;;;;4967048;28;20037;-43
2022/07/15 02:44:31;;;;;;;5.20;1.13;;;14.60;99.90;;;;;;4967287;28;20046;-42
2022/07/15 02:46:57;;;;;;;4.47;0.90;;;14.60;99.90;;;;;;4967797;28;20093;-43
2022/07/15 02:49:23;;;;;;;3.35;0.63;;;14.50;99.90;;;;;;4966309;28;20121;-42
2022/07/15 02:51:48;;;;;;;5.65;0.77;;;14.50;99.90;;;;;;4967987;28;20053;-44
2022/07/15 02:54:14;;;;;;;4.57;0.70;;;14.40;99.90;;;;;;4963280;28;20038;-45
2022/07/15 02:56:40;;;;;;;7.35;0.80;;;14.40;99.90;;;;;;4965865;28;20055;-44
2022/07/15 02:59:05;;;;;;;4.07;0.90;;;14.40;99.90;;;;;;4966224;28;20535;-43
2022/07/15 03:01:31;;;;;;;2.92;0.70;;;14.40;99.90;;;;;;4966262;28;20484;-42
2022/07/15 03:03:57;;;;;;;4.22;0.77;;;14.40;99.90;;;;;;4968281;28;20492;-44
2022/07/15 03:06:22;;;;;;;4.32;0.90;;;14.30;99.90;;;;;;4965772;28;20073;-43
2022/07/15 03:08:48;;;;;;;3.08;0.65;;;14.30;99.90;;;;;;4967273;28;20034;-44
2022/07/15 03:11:14;;;;;;;4.53;0.70;;;14.20;99.90;;;;;;4965198;28;20117;-43
2022/07/15 03:13:39;;;;;;;2.83;0.65;;;14.20;99.90;;;;;;4968876;28;20035;-43
2022/07/15 03:16:05;;;;;;;4.35;0.85;;;14.20;99.90;;;;;;4962110;28;20067;-42
2022/07/15 03:18:31;;;;;;;5.93;0.90;;;14.10;99.90;;;;;;4967413;28;20038;-41
2022/07/15 03:20:57;;;;;;;1.95;0.60;;;14.10;99.90;;;;;;4965930;28;20492;-44
2022/07/15 03:23:22;;;;;;;4.95;0.98;;;14.10;99.90;;;;;;4966424;28;22199;-43
2022/07/15 03:25:48;;;;;;;4.78;0.80;;;14.00;99.90;;;;;;4965293;28;20501;-45
2022/07/15 03:28:13;;;;;;;2.97;0.57;;;14.00;99.90;;;;;;4967628;28;20034;-43
2022/07/15 03:30:39;;;;;;;6.15;0.80;;;14.00;99.90;;;;;;4966763;28;20077;-42
2022/07/15 03:33:05;;;;;;;2.67;0.70;;;14.00;99.90;;;;;;4965598;28;20118;-43
2022/07/15 03:35:31;;;;;;;5.03;0.68;;;14.00;99.90;;;;;;4965997;28;20078;-47
2022/07/15 03:37:56;;;;;;;3.00;0.50;;;13.90;99.90;;;;;;4967134;28;20086;-42
2022/07/15 03:40:22;;;;;;;3.60;0.60;;;13.90;99.90;;;;;;4967113;28;20516;-45
2022/07/15 03:42:48;;;;;;;4.22;0.68;;;13.90;99.90;;;;;;4966770;28;20126;-44
2022/07/15 03:45:13;;;;;;;3.70;0.60;;;13.90;99.90;;;;;;4970246;28;20124;-44
2022/07/15 03:47:39;;;;;;;2.53;0.60;;;13.90;99.90;;;;;;4969767;28;20542;-44
2022/07/15 03:50:05;;;;;;;4.60;0.73;;;13.80;99.90;;;;;;4970191;28;20614;-44
2022/07/15 03:52:31;;;;;;;3.15;0.60;;;13.80;99.90;;;;;;4970664;28;20492;-44
2022/07/15 03:54:56;;;;;;;4.03;0.90;;;13.80;99.90;;;;;;4967673;28;20475;-45
2022/07/15 03:57:24;;;;;;;3.80;0.75;;;13.80;99.90;;;;;;4970567;28;20054;-43
2022/07/15 03:59:50;;;;;;;6.65;0.77;;;13.80;99.90;;;;;;4971896;28;20088;-42
2022/07/15 04:02:16;;;;;;;4.65;0.70;;;13.70;99.90;;;;;;4967801;28;20047;-42
2022/07/15 04:04:41;;;;;;;4.03;0.80;;;13.70;99.90;;;;;;4970466;28;20146;-44
2022/07/15 04:07:07;;;;;;;4.00;0.82;;;13.70;99.90;;;;;;4969946;28;20507;-43
2022/07/15 04:09:33;;;;;;;6.32;0.75;;;13.70;99.90;;;;;;4970937;28;20035;-44
2022/07/15 04:11:58;;;;;;;3.30;0.60;;;13.80;99.90;;;;;;4969860;28;20344;-42
2022/07/15 04:14:24;;;;;;;3.17;0.70;;;13.70;99.90;;;;;;4970184;28;20162;-42
2022/07/15 04:16:50;;;;;;;4.45;0.60;;;13.80;99.90;;;;;;4970656;28;20082;-45
2022/07/15 04:19:15;;;;;;;3.85;0.60;;;13.80;99.90;;;;;;4969360;28;20035;-45
2022/07/15 04:21:41;;;;;;;5.72;0.90;;;13.80;99.90;;;;;;4971173;28;20035;-44
2022/07/15 04:24:07;;;;;;;5.60;0.70;;;13.80;99.90;;;;;;4969625;28;20052;-44
2022/07/15 04:26:32;;;;;;;4.88;0.80;;;13.90;99.90;;;;;;4967384;28;20555;-45
2022/07/15 04:28:58;;;;;;;4.60;0.57;;;13.90;99.90;;;;;;4969310;28;20034;-45
2022/07/15 04:31:24;;;;;;;3.15;0.40;;;13.90;99.90;;;;;;4970455;28;20071;-44
2022/07/15 04:33:50;;;;;;;5.32;0.52;;;13.90;99.90;;;;;;4968657;28;20047;-44
2022/07/15 04:36:16;;;;;;;2.88;0.50;;;14.00;99.90;;;;;;4969404;28;20055;-42
2022/07/15 04:38:41;;;;;;;3.75;0.60;;;14.00;99.90;;;;;;4970002;28;20468;-44
2022/07/15 04:41:07;;;;;;;2.22;0.35;;;14.10;99.90;;;;;;4969868;28;20039;-43
2022/07/15 04:43:33;;;;;;;2.08;0.30;;;14.10;99.90;;;;;;4970527;28;20031;-44
2022/07/15 04:45:59;;;;;;;3.55;0.55;;;14.10;99.90;;;;;;4968690;28;20050;-44
2022/07/15 04:51:25;;;;;;;6.10;0.52;;;14.10;99.90;;;;;;4928155;29;20071;-44
2022/07/15 04:53:51;;;;;;;4.45;0.50;;;14.10;99.90;;;;;;4961690;28;20497;-43
2022/07/15 04:56:16;;;;;;;5.30;0.77;;;14.10;99.90;;;;;;4966490;28;20039;-44
2022/07/15 04:58:42;;;;;;;1.33;0.45;;;14.20;99.90;;;;;;4968357;28;20042;-42
2022/07/15 05:01:08;;;;;;;2.72;0.40;;;14.20;99.90;;;;;;4968271;28;20042;-43
2022/07/15 05:03:33;;;;;;;6.70;0.40;;;14.30;99.90;;;;;;4969917;28;20035;-43
2022/07/15 05:05:59;;;;;;;5.15;0.60;;;14.30;99.90;;;;;;4969220;28;20464;-43
2022/07/15 05:08:25;;;;;;;5.25;0.60;;;14.30;99.90;;;;;;4970287;28;20078;-43
2022/07/15 05:10:51;;;;;;;4.53;0.43;;;14.40;99.90;;;;;;4968927;28;20404;-44
2022/07/15 05:13:16;;;;;;;2.08;0.43;;;14.50;99.90;;;;;;4967266;28;20046;-46
2022/07/15 05:15:42;;;;;;;2.85;0.40;;;14.50;99.90;;;;;;4970011;28;20089;-44
2022/07/15 05:18:08;;;;;;;2.53;0.30;;;14.50;99.90;;;;;;4968187;28;20053;-42
2022/07/15 05:20:34;;;;;;;5.55;0.30;;;14.50;99.90;;;;;;4969187;28;20034;-44
2022/07/15 05:22:59;;;;;;;1.13;0.22;;;14.60;99.90;;;;;;4967016;28;20070;-43
2022/07/15 05:25:25;;;;;;;2.75;0.32;;;14.60;99.90;;;;;;4966891;28;20042;-45
2022/07/15 05:27:51;;;;;;;2.10;0.47;;;14.70;99.90;;;;;;4967622;28;20045;-43
2022/07/15 05:30:17;;;;;;;2.28;0.30;;;14.70;99.90;;;;;;4968901;28;20056;-43
2022/07/15 05:32:43;;;;;;;1.30;0.30;;;14.80;99.90;;;;;;4967301;28;20094;-42
2022/07/15 05:35:09;;;;;;;2.13;0.30;;;14.80;99.90;;;;;;4969136;28;20046;-42
2022/07/15 05:37:38;;;;;;;3.58;0.35;;;14.90;99.90;;;;;;4969276;28;20121;-42
2022/07/15 05:40:08;;;;;;;2.13;0.40;;;14.90;99.90;;;;;;4969753;28;20399;-44
2022/07/15 05:42:34;;;;;;;1.80;0.60;;;15.00;99.90;;;;;;4969205;28;20181;-44
2022/07/15 05:45:00;;;;;;;3.97;0.43;;;15.00;99.90;;;;;;4969406;28;20070;-46
2022/07/15 05:47:26;;;;;;;0.45;0.20;;;15.10;99.90;;;;;;4965486;28;20055;-46
2022/07/15 05:49:52;;;;;;;2.35;0.50;;;15.20;99.90;;;;;;4965091;28;20038;-44
2022/07/15 05:52:17;;;;;;;2.10;0.20;;;15.20;99.90;;;;;;4964325;28;20058;-44
2022/07/15 05:54:43;;;;;;;1.42;0.20;;;15.30;99.90;;;;;;4965713;28;20053;-43
2022/07/15 05:57:09;;;;;;;2.47;0.30;;;15.30;99.90;;;;;;4961335;28;20031;-44
2022/07/15 05:59:35;;;;;;;2.13;0.20;;;15.40;99.90;;;;;;4965438;28;20068;-45
2022/07/15 06:02:00;;;;;;;1.65;0.20;;;15.50;99.90;;;;;;4965020;28;20373;-43
2022/07/15 06:04:27;;;;;;;4.65;0.20;;;15.60;99.90;;;;;;4969569;28;20096;-43
2022/07/15 06:06:54;;;;;;;1.10;0.10;;;15.60;99.90;;;;;;4959994;28;20539;-44
2022/07/15 06:09:20;;;;;;;1.58;0.20;;;15.70;99.90;;;;;;4960087;28;20043;-43
2022/07/15 06:11:46;;;;;;;1.25;0.20;;;15.80;99.60;;;;;;4967505;28;20049;-44
2022/07/15 06:14:11;;;;;;;0.65;0.10;;;15.90;99.20;;;;;;4964872;28;20035;-44
2022/07/15 06:16:37;;;;;;;0.82;0.20;;;15.90;98.90;;;;;;4967637;28;20074;-44
2022/07/15 06:19:03;;;;;;;1.02;0.10;;;16.00;98.20;;;;;;4968455;28;20042;-43
2022/07/15 06:21:29;;;;;;;1.98;0.20;;;16.10;97.80;;;;;;4958566;28;20031;-43
2022/07/15 06:23:55;;;;;;;2.03;0.17;;;16.10;97.10;;;;;;4964578;28;20628;-43
2022/07/15 06:26:21;;;;;;;2.95;0.13;;;16.10;96.80;;;;;;4968760;28;20039;-43
2022/07/15 06:28:47;;;;;;;3.13;0.20;;;16.20;96.70;;;;;;4967555;28;20041;-44
2022/07/15 06:31:13;;;;;;;1.35;0.15;;;16.30;96.10;;;;;;4968077;28;20046;-43
2022/07/15 06:33:39;;;;;;;1.65;0.10;;;16.40;96.00;;;;;;4968146;28;20046;-43
2022/07/15 06:36:05;;;;;;;1.67;0.10;;;16.40;94.90;;;;;;4959913;28;20122;-44
2022/07/15 06:38:32;;;;;;;0.60;0.10;;;16.50;94.90;;;;;;4965914;28;20066;-44
2022/07/15 06:40:58;;;;;;;2.45;0.35;;;16.60;94.70;;;;;;4966429;28;20061;-44
2022/07/15 06:43:24;;;;;;;0.32;0.10;;;16.70;94.00;;;;;;4967451;28;20038;-42
2022/07/15 06:45:49;;;;;;;0.40;0.10;;;16.70;93.60;;;;;;4965464;28;20507;-42
2022/07/15 06:48:15;;;;;;;2.50;0.10;;;16.80;93.40;;;;;;4963955;28;20034;-42
2022/07/15 06:50:41;;;;;;;1.70;0.10;;;16.80;93.10;;;;;;4961281;28;20050;-42
2022/07/15 06:53:07;;;;;;;0.45;0.20;;;16.90;92.90;;;;;;4962788;28;20047;-44
2022/07/15 06:55:32;;;;;;;2.28;0.15;;;16.90;92.20;;;;;;4966131;28;20082;-43
2022/07/15 06:57:58;;;;;;;0.98;0.10;;;17.00;92.40;;;;;;4962003;28;20078;-42
2022/07/15 07:00:24;;;;;;;1.27;0.10;;;17.10;92.40;;;;;;4966012;28;20061;-42
2022/07/15 07:02:50;;;;;;;1.75;0.10;;;17.10;91.80;;;;;;4969276;28;20050;-42
2022/07/15 07:05:16;;;;;;;2.83;0.20;;;17.20;91.60;;;;;;4967991;28;20082;-43
2022/07/15 07:07:42;;;;;;;2.63;0.17;;;17.20;90.50;;;;;;4963428;28;20065;-44
2022/07/15 07:10:09;;;;;;;1.35;0.30;;;17.20;90.40;;;;;;4965938;28;20054;-43
2022/07/15 07:12:35;;;;;;;0.47;0.20;;;17.20;91.00;;;;;;4967546;28;20051;-43
2022/07/15 07:15:02;;;;;;;0.70;0.10;;;17.20;90.20;;;;;;4963844;28;20054;-43
2022/07/15 07:17:27;;;;;;;0.95;0.03;;;17.30;90.00;;;;;;4966091;28;20046;-43
2022/07/15 07:19:55;;;;;;;1.05;0.10;;;17.30;89.70;;;;;;4968825;28;20042;-43
2022/07/15 07:22:21;;;;;;;2.10;0.20;;;17.30;89.10;;;;;;4968396;28;20109;-44
2022/07/15 07:24:47;;;;;;;2.88;0.20;;;17.40;89.30;;;;;;4968747;28;20042;-43
2022/07/15 07:27:13;;;;;;;3.30;0.22;;;17.40;89.20;;;;;;4970506;28;20053;-47
2022/07/15 07:29:39;;;;;;;2.05;0.10;;;17.50;87.60;;;;;;4968343;28;20072;-42
2022/07/15 07:32:05;;;;;;;0.50;0.10;;;17.50;87.10;;;;;;4965494;28;20468;-44
2022/07/15 07:34:32;;;;;;;1.40;0.00;;;17.50;87.50;;;;;;4970234;28;20037;-44
2022/07/15 07:36:58;;;;;;;1.60;0.10;;;17.60;87.30;;;;;;4969798;28;20050;-43
2022/07/15 07:39:23;;;;;;;0.70;0.10;;;17.70;87.20;;;;;;4971705;28;20167;-43
2022/07/15 07:41:53;;;;;;;0.30;0.10;;;17.70;86.40;;;;;;4970885;28;20074;-42
2022/07/15 07:44:20;;;;;;;2.20;0.10;;;17.80;87.50;;;;;;4969723;28;20142;-45
2022/07/15 07:46:46;;;;;;;1.30;0.10;;;17.90;86.90;;;;;;4969895;28;20050;-42
2022/07/15 07:49:13;;;;;;;0.50;0.20;;;18.00;85.70;;;;;;4971368;28;20097;-43
2022/07/15 07:51:40;;;;;;;0.30;0.10;;;18.00;85.10;;;;;;4967935;28;20069;-43
2022/07/15 07:54:07;;;;;;;0.17;0.10;;;18.10;85.30;;;;;;4968820;28;20042;-44
2022/07/15 07:56:32;;;;;;;2.85;0.20;;;18.20;85.40;;;;;;4969498;28;20049;-42
2022/07/15 07:58:58;;;;;;;0.25;0.15;;;18.30;85.50;;;;;;4967345;28;20038;-43
2022/07/15 08:01:24;;;;;;;0.50;0.20;;;18.40;84.90;;;;;;4968549;28;20035;-42
2022/07/15 08:03:50;;;;;;;0.63;0.10;;;18.40;83.10;;;;;;4968358;28;20138;-44
2022/07/15 08:06:17;;;;;;;1.25;0.20;;;18.40;82.30;;;;;;4970562;28;20388;-43
2022/07/15 08:08:44;;;;;;;0.43;0.10;;;18.40;83.40;;;;;;4971295;28;20354;-44
2022/07/15 08:11:10;;;;;;;0.85;0.10;;;18.50;83.50;;;;;;4972426;28;20057;-42
2022/07/15 08:13:35;;;;;;;0.77;0.10;;;18.70;81.60;;;;;;4968572;28;20070;-42
2022/07/15 08:16:01;;;;;;;0.90;0.10;;;18.80;79.70;;;;;;4968127;28;20086;-42
2022/07/15 08:18:28;;;;;;;2.17;0.50;;;18.90;80.30;;;;;;4962372;28;20038;-44
2022/07/15 08:20:53;;;;;;;1.13;0.10;;;19.00;79.20;;;;;;4958283;28;20418;-44
2022/07/15 08:23:21;;;;;;;1.42;0.20;;;19.20;78.90;;;;;;4963845;28;20057;-42
2022/07/15 08:25:48;;;;;;;1.33;0.20;;;19.40;77.00;;;;;;4966783;28;20064;-42
2022/07/15 08:28:14;;;;;;;2.15;0.10;;;19.60;76.50;;;;;;4967695;28;20046;-44
2022/07/15 08:30:39;;;;;;;0.30;0.10;;;19.60;73.40;;;;;;4966175;28;20515;-43
2022/07/15 08:33:05;;;;;;;3.10;0.30;;;19.40;71.20;;;;;;4965108;28;20073;-45
2022/07/15 08:35:31;;;;;;;0.80;0.20;;;19.20;72.10;;;;;;4971411;28;20077;-44
2022/07/15 08:37:57;;;;;;;0.70;0.10;;;19.10;74.20;;;;;;4970826;28;20031;-43
2022/07/15 08:40:24;;;;;;;0.47;0.10;;;19.00;75.70;;;;;;4972396;28;20043;-42
2022/07/15 08:42:50;;;;;;;0.98;0.10;;;18.90;75.20;;;;;;4971882;28;20062;-42
2022/07/15 08:45:16;;;;;;;0.63;0.28;;;18.90;75.90;;;;;;4971421;28;20134;-43
2022/07/15 08:47:46;;;;;;;2.67;0.20;;;18.90;74.40;;;;;;4971585;28;20093;-43
2022/07/15 08:50:14;;;;;;;3.28;0.20;;;19.00;74.20;;;;;;4970219;28;20038;-43
2022/07/15 08:52:43;;;;;;;0.68;0.17;;;19.10;73.90;;;;;;4970861;28;20503;-42
2022/07/15 08:55:09;;;;;;;1.92;0.17;;;19.20;72.90;;;;;;4971682;28;20043;-43
2022/07/15 08:57:35;;;;;;;1.27;0.10;;;19.30;70.40;;;;;;4971576;28;20504;-42
2022/07/15 09:00:03;;;;;;;0.52;0.10;;;19.40;66.50;;;;;;4968505;28;20027;-43
2022/07/15 09:02:30;;;;;;;2.55;0.20;;;19.50;64.30;;;;;;4970721;28;20424;-42
2022/07/15 09:05:17;;;;;;;1.75;0.13;;;19.60;68.00;;;;;;4970146;28;20104;-43
2022/07/15 09:08:02;;;;;;;0.65;0.20;;;19.90;64.40;;;;;;4970677;28;20070;-43
2022/07/15 09:10:43;;;;;;;0.75;0.10;;;20.10;67.70;;;;;;4970576;28;20053;-43
2022/07/15 09:13:22;;;;;;;0.65;0.10;;;20.00;63.80;;;;;;4969192;28;20066;-42
2022/07/15 09:15:49;;;;;;;0.68;0.13;;;20.10;65.10;;;;;;4959668;28;20091;-42
2022/07/15 09:18:18;;;;;;;1.45;0.10;;;20.20;66.00;;;;;;4964044;28;20046;-43
2022/07/15 09:20:44;;;;;;;0.77;0.10;;;20.10;61.40;;;;;;4966401;28;20041;-42
2022/07/15 09:23:16;;;;;;;0.45;0.13;;;19.90;61.00;;;;;;4963691;28;20053;-42
2022/07/15 09:25:42;;;;;;;1.80;0.30;;;19.80;64.00;;;;;;4965576;28;20086;-43
2022/07/15 09:28:08;;;;;;;2.20;0.20;;;19.60;66.70;;;;;;4967136;28;20035;-43
2022/07/15 09:33:39;;;;;;;1.15;0.17;;;19.40;69.10;;;;;;4969071;28;20130;-42
2022/07/15 09:36:26;;;;;;;2.28;0.20;;;19.50;70.40;;;;;;4966916;28;20116;-43
2022/07/15 09:38:55;;;;;;;0.75;0.20;;;19.70;66.50;;;;;;4965078;28;20090;-44
2022/07/15 09:41:27;;;;;;;0.10;0.10;;;20.00;65.80;;;;;;4960880;28;20347;-42
2022/07/15 09:44:05;;;;;;;2.28;0.20;;;20.10;63.70;;;;;;4957066;28;20118;-43
2022/07/15 09:46:46;;;;;;;5.78;0.20;;;20.50;66.10;;;;;;4965021;28;20039;-43
2022/07/15 09:49:32;;;;;;;1.30;0.30;;;20.90;66.10;;;;;;4960910;28;20042;-44
2022/07/15 09:52:44;;;;;;;1.08;0.40;;;21.10;64.30;;;;;;4961537;28;20768;-43
2022/07/15 09:55:10;;;;;;;1.60;0.40;;;21.40;63.70;;;;;;4957364;28;20059;-44
2022/07/15 09:57:36;;;;;;;1.75;0.20;;;21.60;62.70;;;;;;4967502;28;20479;-43
2022/07/15 10:00:02;;;;;;;2.22;0.20;;;21.80;61.20;;;;;;4966060;28;20117;-42
2022/07/15 10:02:28;;;;;;;1.02;0.20;;;21.80;60.20;;;;;;4967564;28;20129;-42
2022/07/15 10:04:55;;;;;;;1.63;0.20;;;21.80;60.40;;;;;;4967398;28;20887;-43
2022/07/15 10:07:23;;;;;;;4.85;0.35;;;21.80;61.60;;;;;;4964144;28;20039;-43
2022/07/15 10:09:49;;;;;;;2.85;0.30;;;21.80;61.00;;;;;;4966828;28;20121;-42
2022/07/15 10:12:19;;;;;;;2.42;0.30;;;21.70;62.20;;;;;;4966127;28;20133;-40
2022/07/15 10:15:15;;;;;;;1.65;0.30;;;21.70;62.90;;;;;;4965507;28;20638;-41
2022/07/15 10:17:57;;;;;;;3.10;0.30;;;21.70;62.30;;;;;;4969098;28;20034;-42
2022/07/15 10:20:36;;;;;;;2.38;0.28;;;21.90;61.10;;;;;;4969225;28;20043;-42
2022/07/15 10:23:33;;;;;;;1.77;0.68;;;22.00;60.10;;;;;;4968002;28;20045;-42
2022/07/15 10:26:04;;;;;;;3.05;0.40;;;22.20;57.70;;;;;;4966589;28;20090;-42
2022/07/15 10:28:50;;;;;;;2.47;0.20;;;22.40;59.40;;;;;;4968284;28;20057;-44
2022/07/15 10:31:25;;;;;;;0.90;0.20;;;22.70;56.30;;;;;;4964277;28;20906;-43
2022/07/15 10:34:03;;;;;;;1.73;0.20;;;22.70;55.90;;;;;;4962277;28;20046;-42
2022/07/15 10:36:54;;;;;;;0.38;0.20;;;22.40;54.20;;;;;;4965241;28;20043;-41
2022/07/15 10:39:26;;;;;;;0.93;0.20;;;22.20;53.10;;;;;;4960061;28;20698;-42
2022/07/15 10:42:03;;;;;;;1.17;0.20;;;22.20;57.60;;;;;;4976879;28;20041;-42
2022/07/15 10:44:34;;;;;;;1.67;0.10;;;22.30;55.80;;;;;;4965659;28;20160;-41
2022/07/15 10:47:12;;;;;;;1.90;0.30;;;22.40;55.30;;;;;;4964019;28;20046;-43
2022/07/15 10:49:38;;;;;;;0.82;0.20;;;22.50;54.70;;;;;;4968085;28;20551;-43
2022/07/15 10:52:17;;;;;;;2.35;0.30;;;22.50;54.70;;;;;;4963784;28;20465;-42
2022/07/15 10:54:54;;;;;;;1.45;0.20;;;22.40;53.60;;;;;;4968091;28;20039;-42
2022/07/15 10:57:41;;;;;;;0.63;0.10;;;22.40;54.50;;;;;;4964239;28;20062;-44
2022/07/15 11:00:36;;;;;;;2.13;0.30;;;22.50;55.60;;;;;;4966159;28;20043;-42
2022/07/15 11:03:09;;;;;;;0.77;0.20;;;22.70;54.00;;;;;;4964390;28;20108;-42
2022/07/15 11:05:56;;;;;;;0.85;0.20;;;22.90;53.90;;;;;;4964345;28;20846;-41
2022/07/15 11:08:31;;;;;;;1.27;0.25;;;22.70;51.20;;;;;;4960025;28;20073;-41
2022/07/15 11:10:57;;;;;;;0.82;0.35;;;22.80;51.50;;;;;;4965232;28;20400;-42
2022/07/15 11:13:33;;;;;;;1.98;0.30;;;22.90;52.10;;;;;;4957641;28;20109;-43
2022/07/15 11:16:00;;;;;;;0.68;0.13;;;22.90;51.40;;;;;;4968047;28;20050;-41
2022/07/15 11:18:26;;;;;;;1.42;0.30;;;22.90;52.00;;;;;;4968217;28;20125;-41
2022/07/15 11:20:53;;;;;;;1.67;0.15;;;22.80;52.80;;;;;;4966135;28;20165;-42
2022/07/15 11:23:20;;;;;;;0.60;0.20;;;22.80;52.60;;;;;;4967801;28;20664;-42
2022/07/15 11:25:47;;;;;;;1.85;0.30;;;22.80;52.80;;;;;;4959441;28;20188;-42
2022/07/15 11:28:17;;;;;;;4.60;0.35;;;22.80;53.30;;;;;;4966799;28;20648;-42
2022/07/15 11:30:53;;;;;;;1.40;0.15;;;22.90;52.10;;;;;;4964168;28;20477;-42
2022/07/15 11:33:25;;;;;;;1.55;0.20;;;23.00;52.40;;;;;;4966272;28;20050;-41
2022/07/15 11:36:00;;;;;;;2.05;0.30;;;23.10;52.10;;;;;;4965932;28;20499;-41
2022/07/15 11:38:29;;;;;;;3.78;0.52;;;23.10;52.20;;;;;;4965221;28;20133;-42
2022/07/15 11:46:30;;;;;;;1.83;0.20;;;23.30;51.30;;;;;;4963100;28;20054;-43
2022/07/15 11:48:58;;;;;;;0.90;0.35;;;23.30;50.60;;;;;;4964086;28;20169;-43
2022/07/15 11:51:27;;;;;;;0.68;0.15;;;23.40;50.60;;;;;;4964457;28;20046;-42
2022/07/15 11:53:53;;;;;;;1.05;0.30;;;23.70;50.60;;;;;;4966146;28;20253;-42
2022/07/15 11:56:19;;;;;;;4.45;0.40;;;24.00;50.10;;;;;;4966064;28;20459;-41
2022/07/15 11:58:50;;;;;;;1.17;0.22;;;24.20;49.00;;;;;;4961809;28;20043;-42
2022/07/15 12:01:20;;;;;;;1.45;0.20;;;24.10;48.50;;;;;;4964372;28;20087;-43
2022/07/15 12:03:49;;;;;;;3.60;0.50;;;23.80;48.80;;;;;;4967282;28;20133;-42
2022/07/15 12:06:20;;;;;;;2.67;0.40;;;23.70;48.70;;;;;;4970312;28;20109;-42
2022/07/15 12:08:52;;;;;;;1.17;0.30;;;23.60;49.00;;;;;;4971761;28;20154;-47
2022/07/15 12:11:28;;;;;;;2.80;0.40;;;23.60;49.40;;;;;;4969961;28;20108;-43
2022/07/15 12:14:09;;;;;;;1.15;0.25;;;23.60;50.00;;;;;;4964257;28;20320;-43
2022/07/15 12:16:50;;;;;;;1.08;0.20;;;23.80;49.20;;;;;;4969460;28;20113;-43
2022/07/15 12:19:27;;;;;;;2.85;0.20;;;23.80;49.00;;;;;;4966482;28;20070;-41
2022/07/15 12:21:58;;;;;;;3.67;0.40;;;23.90;49.50;;;;;;4968899;28;20407;-43
2022/07/15 12:24:26;;;;;;;1.23;0.17;;;24.00;49.50;;;;;;4968561;28;21404;-43
2022/07/15 12:26:52;;;;;;;3.22;0.85;;;24.20;49.10;;;;;;4969349;28;20113;-43
2022/07/15 12:29:27;;;;;;;2.03;0.28;;;24.30;49.00;;;;;;4969576;28;20055;-43
2022/07/15 12:31:58;;;;;;;1.77;0.20;;;24.40;47.90;;;;;;4967217;28;20053;-42
2022/07/15 12:34:46;;;;;;;1.13;0.10;;;24.30;48.80;;;;;;4968505;28;20128;-42
2022/07/15 12:37:19;;;;;;;0.63;0.20;;;24.00;46.40;;;;;;4966677;28;20050;-42
2022/07/15 12:39:59;;;;;;;3.30;0.28;;;23.90;48.50;;;;;;4970401;28;20069;-42
2022/07/15 12:42:26;;;;;;;3.33;0.35;;;23.70;48.30;;;;;;4970641;28;20042;-41
2022/07/15 12:45:10;;;;;;;0.60;0.20;;;23.80;49.10;;;;;;4969049;28;20043;-41
2022/07/15 12:47:37;;;;;;;1.67;0.50;;;23.90;49.00;;;;;;4970316;28;20456;-43
2022/07/15 12:50:04;;;;;;;1.38;0.30;;;24.10;48.40;;;;;;4968029;28;20050;-42
2022/07/15 12:52:35;;;;;;;2.30;0.30;;;24.30;47.80;;;;;;4970261;28;20109;-42
2022/07/15 12:55:18;;;;;;;1.20;0.30;;;24.50;46.60;;;;;;4969315;28;20165;-43
2022/07/15 12:57:44;;;;;;;0.52;0.20;;;24.60;46.30;;;;;;4967859;28;20411;-41
2022/07/15 13:00:14;;;;;;;1.40;0.20;;;24.80;46.10;;;;;;4967257;28;20142;-43
2022/07/15 13:03:08;;;;;;;2.53;0.30;;;24.90;45.90;;;;;;4968068;28;20039;-41
2022/07/15 13:05:43;;;;;;;0.90;0.20;;;25.10;46.20;;;;;;4969196;28;20425;-42